This is the latest recevied weather packets stored in our database for station/object F5MAP-5. If no packets are shown the sender has not sent any weather packets the latest 10 day(s).
| Time | Temp. | Humidity | Pressure | Rain* | Wind** | Luminosity | Snow |
|---|---|---|---|---|---|---|---|
| 1777626144 | 16.67° C | 33% | 1025.5 hPa | 0 mm | - | 684 W/m² | - |
| 1777625544 | 16.11° C | 34% | 1025.5 hPa | 0 mm | - | 666 W/m² | - |
| 1777624944 | 15.56° C | 35% | 1025.5 hPa | 0 mm | - | 652 W/m² | - |
| 1777624344 | 15.56° C | 36% | 1025.6 hPa | 0 mm | - | 629 W/m² | - |
| 1777623744 | 15° C | 36% | 1025.5 hPa | 0 mm | - | 610 W/m² | - |
| 1777623144 | 14.44° C | 39% | 1025.5 hPa | 0 mm | - | 591 W/m² | - |
| 1777622544 | 13.89° C | 40% | 1025.4 hPa | 0 mm | - | 559 W/m² | - |
| 1777621944 | 13.89° C | 40% | 1025.4 hPa | 0 mm | - | 538 W/m² | - |
| 1777621344 | 13.33° C | 41% | 1025.4 hPa | 0 mm | - | 513 W/m² | - |
| 1777620746 | 21.67° C | 26% | 1020.5 hPa | 0 mm | - | 35 W/m² | - |
| 1777620143 | 12.22° C | 43% | 1025.4 hPa | 0 mm | - | 464 W/m² | - |
| 1777619543 | 11.67° C | 43% | 1025.4 hPa | 0 mm | - | 49 W/m² | - |
| 1777618943 | 11.11° C | 45% | 1025.4 hPa | 0 mm | - | 49 W/m² | - |
| 1777618343 | 10.56° C | 47% | 1025.4 hPa | 0 mm | - | 47 W/m² | - |
| 1777617743 | 10.56° C | 48% | 1025.4 hPa | 0 mm | - | 47 W/m² | - |
| 1777617143 | 9.44° C | 51% | 1025.5 hPa | 0 mm | - | 46 W/m² | - |
| 1777616543 | 8.33° C | 56% | 1025.5 hPa | 0 mm | - | 46 W/m² | - |
| 1777615943 | 7.78° C | 60% | 1025.4 hPa | 0 mm | - | 46 W/m² | - |
| 1777615343 | 6.11° C | 67% | 1025.4 hPa | 0 mm | - | 44 W/m² | - |
| 1777614742 | 5.56° C | 73% | 1025.3 hPa | 0 mm | - | 42 W/m² | - |
| 1777614142 | 4.44° C | 76% | 1025.2 hPa | 0 mm | - | 40 W/m² | - |
| 1777613542 | 3.89° C | 77% | 1025.1 hPa | 0 mm | - | 39 W/m² | - |
| 1777612942 | 3.89° C | 77% | 1025 hPa | 0 mm | - | 37 W/m² | - |
| 1777612342 | 3.33° C | 76% | 1025 hPa | 0 mm | - | 35 W/m² | - |
| 1777611143 | 3.33° C | 75% | 1025 hPa | 0 mm | - | 26 W/m² | - |
* Rain latest hour (hover to see other rain measurements)
** Current wind speed in m/s (hover to see current wind gust speed)